sensor_id;sensor_type;location;lat;lon;timestamp;P1;durP1;ratioP1;P2;durP2;ratioP2
40022;SDS011;25713;-35.352;149.036;2023-09-19T00:00:59;6.63;;;3.53;;
40022;SDS011;25713;-35.352;149.036;2023-09-19T00:03:28;5.28;;;3.67;;
40022;SDS011;25713;-35.352;149.036;2023-09-19T00:05:58;5.70;;;3.38;;
40022;SDS011;25713;-35.352;149.036;2023-09-19T00:08:27;6.63;;;3.60;;
40022;SDS011;25713;-35.352;149.036;2023-09-19T00:10:59;6.00;;;3.63;;
40022;SDS011;25713;-35.352;149.036;2023-09-19T00:13:28;5.43;;;3.23;;
40022;SDS011;25713;-35.352;149.036;2023-09-19T00:15:58;4.40;;;3.13;;
40022;SDS011;25713;-35.352;149.036;2023-09-19T00:18:27;5.53;;;3.47;;
40022;SDS011;25713;-35.352;149.036;2023-09-19T00:20:57;3.90;;;3.08;;
40022;SDS011;25713;-35.352;149.036;2023-09-19T00:23:27;5.72;;;3.25;;
40022;SDS011;25713;-35.352;149.036;2023-09-19T00:26:00;5.47;;;3.47;;
40022;SDS011;25713;-35.352;149.036;2023-09-19T00:28:30;4.93;;;3.58;;
40022;SDS011;25713;-35.352;149.036;2023-09-19T00:30:59;6.53;;;3.28;;
40022;SDS011;25713;-35.352;149.036;2023-09-19T00:33:29;5.00;;;3.30;;
40022;SDS011;25713;-35.352;149.036;2023-09-19T00:35:58;5.38;;;3.50;;
40022;SDS011;25713;-35.352;149.036;2023-09-19T00:38:28;7.13;;;3.75;;
40022;SDS011;25713;-35.352;149.036;2023-09-19T00:40:57;4.65;;;3.53;;
40022;SDS011;25713;-35.352;149.036;2023-09-19T00:43:30;4.95;;;3.60;;
40022;SDS011;25713;-35.352;149.036;2023-09-19T00:45:59;5.60;;;3.53;;
40022;SDS011;25713;-35.352;149.036;2023-09-19T00:48:29;7.90;;;3.60;;
40022;SDS011;25713;-35.352;149.036;2023-09-19T00:50:59;9.70;;;3.90;;
40022;SDS011;25713;-35.352;149.036;2023-09-19T00:53:32;8.20;;;3.83;;
40022;SDS011;25713;-35.352;149.036;2023-09-19T00:56:04;7.95;;;3.80;;
40022;SDS011;25713;-35.352;149.036;2023-09-19T00:58:34;7.88;;;3.70;;
40022;SDS011;25713;-35.352;149.036;2023-09-19T01:01:04;6.22;;;3.42;;
40022;SDS011;25713;-35.352;149.036;2023-09-19T01:06:04;5.07;;;3.30;;
40022;SDS011;25713;-35.352;149.036;2023-09-19T01:08:34;6.65;;;3.88;;
40022;SDS011;25713;-35.352;149.036;2023-09-19T01:11:08;4.25;;;3.53;;
40022;SDS011;25713;-35.352;149.036;2023-09-19T01:13:46;4.57;;;3.47;;
40022;SDS011;25713;-35.352;149.036;2023-09-19T01:16:26;5.22;;;2.85;;
40022;SDS011;25713;-35.352;149.036;2023-09-19T01:19:07;6.45;;;3.22;;
40022;SDS011;25713;-35.352;149.036;2023-09-19T01:22:00;8.15;;;3.58;;
40022;SDS011;25713;-35.352;149.036;2023-09-19T01:24:54;4.00;;;3.58;;
40022;SDS011;25713;-35.352;149.036;2023-09-19T01:27:57;5.13;;;3.00;;
40022;SDS011;25713;-35.352;149.036;2023-09-19T01:30:47;3.78;;;3.28;;
40022;SDS011;25713;-35.352;149.036;2023-09-19T01:33:23;7.32;;;3.60;;
40022;SDS011;25713;-35.352;149.036;2023-09-19T01:35:53;4.78;;;3.28;;
40022;SDS011;25713;-35.352;149.036;2023-09-19T01:38:22;5.18;;;3.17;;
40022;SDS011;25713;-35.352;149.036;2023-09-19T01:40:56;5.38;;;3.33;;
40022;SDS011;25713;-35.352;149.036;2023-09-19T01:43:30;6.65;;;3.30;;
40022;SDS011;25713;-35.352;149.036;2023-09-19T01:46:08;4.82;;;3.42;;
40022;SDS011;25713;-35.352;149.036;2023-09-19T01:48:43;9.13;;;3.25;;
40022;SDS011;25713;-35.352;149.036;2023-09-19T01:51:18;5.22;;;3.25;;
40022;SDS011;25713;-35.352;149.036;2023-09-19T01:53:59;3.53;;;3.17;;
40022;SDS011;25713;-35.352;149.036;2023-09-19T01:56:31;5.57;;;3.10;;
40022;SDS011;25713;-35.352;149.036;2023-09-19T01:59:05;4.80;;;3.42;;
40022;SDS011;25713;-35.352;149.036;2023-09-19T02:01:39;5.65;;;3.17;;
40022;SDS011;25713;-35.352;149.036;2023-09-19T02:04:12;4.90;;;3.30;;
40022;SDS011;25713;-35.352;149.036;2023-09-19T02:06:41;8.27;;;3.35;;
40022;SDS011;25713;-35.352;149.036;2023-09-19T02:09:11;6.97;;;2.90;;
40022;SDS011;25713;-35.352;149.036;2023-09-19T02:11:41;6.05;;;3.50;;
40022;SDS011;25713;-35.352;149.036;2023-09-19T02:14:11;7.90;;;3.33;;
40022;SDS011;25713;-35.352;149.036;2023-09-19T02:16:42;4.97;;;3.40;;
40022;SDS011;25713;-35.352;149.036;2023-09-19T02:19:12;8.30;;;3.55;;
40022;SDS011;25713;-35.352;149.036;2023-09-19T02:21:41;6.05;;;3.47;;
40022;SDS011;25713;-35.352;149.036;2023-09-19T02:24:10;8.85;;;3.50;;
40022;SDS011;25713;-35.352;149.036;2023-09-19T02:26:41;4.43;;;3.20;;
40022;SDS011;25713;-35.352;149.036;2023-09-19T02:29:10;7.30;;;3.25;;
40022;SDS011;25713;-35.352;149.036;2023-09-19T02:31:42;4.10;;;3.00;;
40022;SDS011;25713;-35.352;149.036;2023-09-19T02:34:11;16.20;;;3.43;;
40022;SDS011;25713;-35.352;149.036;2023-09-19T02:36:41;8.77;;;3.60;;
40022;SDS011;25713;-35.352;149.036;2023-09-19T02:39:10;6.07;;;3.55;;
40022;SDS011;25713;-35.352;149.036;2023-09-19T02:41:40;4.70;;;3.13;;
40022;SDS011;25713;-35.352;149.036;2023-09-19T02:44:10;4.03;;;3.40;;
40022;SDS011;25713;-35.352;149.036;2023-09-19T02:46:42;6.60;;;3.47;;
40022;SDS011;25713;-35.352;149.036;2023-09-19T02:49:11;7.25;;;3.35;;
40022;SDS011;25713;-35.352;149.036;2023-09-19T02:51:44;5.50;;;3.58;;
40022;SDS011;25713;-35.352;149.036;2023-09-19T02:54:13;4.65;;;3.60;;
40022;SDS011;25713;-35.352;149.036;2023-09-19T02:56:43;4.00;;;3.40;;
40022;SDS011;25713;-35.352;149.036;2023-09-19T02:59:12;4.88;;;3.40;;
40022;SDS011;25713;-35.352;149.036;2023-09-19T03:01:45;4.72;;;3.42;;
40022;SDS011;25713;-35.352;149.036;2023-09-19T03:04:14;5.72;;;3.60;;
40022;SDS011;25713;-35.352;149.036;2023-09-19T03:06:44;3.78;;;3.28;;
40022;SDS011;25713;-35.352;149.036;2023-09-19T03:09:13;3.40;;;3.10;;
40022;SDS011;25713;-35.352;149.036;2023-09-19T03:11:43;5.85;;;3.50;;
40022;SDS011;25713;-35.352;149.036;2023-09-19T03:14:12;5.28;;;3.40;;
40022;SDS011;25713;-35.352;149.036;2023-09-19T03:16:42;8.43;;;3.67;;
40022;SDS011;25713;-35.352;149.036;2023-09-19T03:19:15;6.70;;;3.65;;
40022;SDS011;25713;-35.352;149.036;2023-09-19T03:21:45;6.47;;;3.35;;
40022;SDS011;25713;-35.352;149.036;2023-09-19T03:24:15;4.75;;;3.58;;
40022;SDS011;25713;-35.352;149.036;2023-09-19T03:26:44;5.28;;;3.50;;
40022;SDS011;25713;-35.352;149.036;2023-09-19T03:29:14;5.72;;;3.60;;
40022;SDS011;25713;-35.352;149.036;2023-09-19T03:31:47;6.80;;;3.67;;
40022;SDS011;25713;-35.352;149.036;2023-09-19T03:34:17;6.10;;;3.70;;
40022;SDS011;25713;-35.352;149.036;2023-09-19T03:36:47;5.22;;;3.72;;
40022;SDS011;25713;-35.352;149.036;2023-09-19T03:39:16;5.68;;;3.60;;
40022;SDS011;25713;-35.352;149.036;2023-09-19T03:41:46;4.80;;;3.58;;
40022;SDS011;25713;-35.352;149.036;2023-09-19T03:44:15;5.15;;;3.67;;
40022;SDS011;25713;-35.352;149.036;2023-09-19T03:46:45;7.38;;;3.72;;
40022;SDS011;25713;-35.352;149.036;2023-09-19T03:49:16;6.57;;;3.33;;
40022;SDS011;25713;-35.352;149.036;2023-09-19T03:51:46;5.25;;;3.63;;
40022;SDS011;25713;-35.352;149.036;2023-09-19T03:54:15;5.45;;;3.60;;
40022;SDS011;25713;-35.352;149.036;2023-09-19T03:56:45;6.60;;;3.67;;
40022;SDS011;25713;-35.352;149.036;2023-09-19T03:59:14;4.50;;;3.45;;
40022;SDS011;25713;-35.352;149.036;2023-09-19T04:01:44;5.50;;;3.80;;
40022;SDS011;25713;-35.352;149.036;2023-09-19T04:04:15;5.75;;;3.47;;
40022;SDS011;25713;-35.352;149.036;2023-09-19T04:06:44;4.63;;;3.40;;
40022;SDS011;25713;-35.352;149.036;2023-09-19T04:09:14;6.85;;;3.65;;
40022;SDS011;25713;-35.352;149.036;2023-09-19T04:11:43;4.28;;;3.42;;
40022;SDS011;25713;-35.352;149.036;2023-09-19T04:14:12;6.05;;;3.88;;
40022;SDS011;25713;-35.352;149.036;2023-09-19T04:16:42;8.70;;;3.58;;
40022;SDS011;25713;-35.352;149.036;2023-09-19T04:19:12;7.93;;;3.47;;
40022;SDS011;25713;-35.352;149.036;2023-09-19T04:21:45;4.78;;;3.50;;
40022;SDS011;25713;-35.352;149.036;2023-09-19T04:24:14;6.10;;;3.63;;
40022;SDS011;25713;-35.352;149.036;2023-09-19T04:26:43;5.32;;;3.50;;
40022;SDS011;25713;-35.352;149.036;2023-09-19T04:29:13;6.50;;;3.45;;
40022;SDS011;25713;-35.352;149.036;2023-09-19T04:31:42;4.60;;;3.60;;
40022;SDS011;25713;-35.352;149.036;2023-09-19T04:34:12;5.68;;;3.53;;
40022;SDS011;25713;-35.352;149.036;2023-09-19T04:36:43;4.77;;;3.57;;
40022;SDS011;25713;-35.352;149.036;2023-09-19T04:39:13;5.85;;;3.55;;
40022;SDS011;25713;-35.352;149.036;2023-09-19T04:41:42;5.95;;;3.70;;
40022;SDS011;25713;-35.352;149.036;2023-09-19T04:44:12;5.68;;;3.40;;
40022;SDS011;25713;-35.352;149.036;2023-09-19T04:46:41;5.32;;;3.72;;
40022;SDS011;25713;-35.352;149.036;2023-09-19T04:49:11;6.13;;;3.50;;
40022;SDS011;25713;-35.352;149.036;2023-09-19T04:51:42;3.97;;;3.38;;
40022;SDS011;25713;-35.352;149.036;2023-09-19T04:54:12;10.25;;;3.80;;
40022;SDS011;25713;-35.352;149.036;2023-09-19T04:56:41;5.43;;;3.63;;
40022;SDS011;25713;-35.352;149.036;2023-09-19T04:59:11;7.80;;;3.60;;
40022;SDS011;25713;-35.352;149.036;2023-09-19T05:01:40;5.45;;;3.60;;
40022;SDS011;25713;-35.352;149.036;2023-09-19T05:04:10;7.38;;;3.70;;
40022;SDS011;25713;-35.352;149.036;2023-09-19T05:06:39;4.65;;;3.10;;
40022;SDS011;25713;-35.352;149.036;2023-09-19T05:09:10;4.87;;;3.57;;
40022;SDS011;25713;-35.352;149.036;2023-09-19T05:11:40;7.75;;;3.72;;
40022;SDS011;25713;-35.352;149.036;2023-09-19T05:14:09;3.60;;;3.08;;
40022;SDS011;25713;-35.352;149.036;2023-09-19T05:16:38;5.43;;;3.47;;
40022;SDS011;25713;-35.352;149.036;2023-09-19T05:19:08;7.40;;;3.53;;
40022;SDS011;25713;-35.352;149.036;2023-09-19T05:21:37;5.18;;;3.45;;
40022;SDS011;25713;-35.352;149.036;2023-09-19T05:24:08;5.03;;;3.47;;
40022;SDS011;25713;-35.352;149.036;2023-09-19T05:26:38;4.95;;;3.70;;
40022;SDS011;25713;-35.352;149.036;2023-09-19T05:29:07;6.18;;;3.65;;
40022;SDS011;25713;-35.352;149.036;2023-09-19T05:31:37;6.40;;;3.65;;
40022;SDS011;25713;-35.352;149.036;2023-09-19T05:34:06;6.05;;;3.30;;
40022;SDS011;25713;-35.352;149.036;2023-09-19T05:36:35;5.07;;;2.80;;
40022;SDS011;25713;-35.352;149.036;2023-09-19T05:39:05;6.88;;;3.33;;
40022;SDS011;25713;-35.352;149.036;2023-09-19T05:41:36;4.13;;;3.15;;
40022;SDS011;25713;-35.352;149.036;2023-09-19T05:44:05;5.45;;;3.05;;
40022;SDS011;25713;-35.352;149.036;2023-09-19T05:46:35;6.20;;;3.05;;
40022;SDS011;25713;-35.352;149.036;2023-09-19T05:49:04;4.25;;;3.28;;
40022;SDS011;25713;-35.352;149.036;2023-09-19T05:51:34;4.97;;;3.42;;
40022;SDS011;25713;-35.352;149.036;2023-09-19T05:54:04;6.60;;;3.17;;
40022;SDS011;25713;-35.352;149.036;2023-09-19T05:56:36;6.32;;;3.28;;
40022;SDS011;25713;-35.352;149.036;2023-09-19T05:59:05;7.20;;;3.58;;
40022;SDS011;25713;-35.352;149.036;2023-09-19T06:01:35;5.32;;;3.42;;
40022;SDS011;25713;-35.352;149.036;2023-09-19T06:04:04;5.25;;;3.13;;
40022;SDS011;25713;-35.352;149.036;2023-09-19T06:06:33;5.00;;;3.00;;
40022;SDS011;25713;-35.352;149.036;2023-09-19T06:09:04;6.18;;;3.47;;
40022;SDS011;25713;-35.352;149.036;2023-09-19T06:11:36;8.20;;;3.10;;
40022;SDS011;25713;-35.352;149.036;2023-09-19T06:14:06;4.80;;;3.10;;
40022;SDS011;25713;-35.352;149.036;2023-09-19T06:16:35;6.93;;;3.17;;
40022;SDS011;25713;-35.352;149.036;2023-09-19T06:19:05;8.50;;;3.00;;
40022;SDS011;25713;-35.352;149.036;2023-09-19T06:21:34;3.05;;;2.72;;
40022;SDS011;25713;-35.352;149.036;2023-09-19T06:24:04;4.55;;;2.90;;
40022;SDS011;25713;-35.352;149.036;2023-09-19T06:26:36;5.63;;;2.70;;
40022;SDS011;25713;-35.352;149.036;2023-09-19T06:29:05;8.40;;;3.08;;
40022;SDS011;25713;-35.352;149.036;2023-09-19T06:31:35;7.43;;;2.80;;
40022;SDS011;25713;-35.352;149.036;2023-09-19T06:34:07;5.43;;;2.83;;
40022;SDS011;25713;-35.352;149.036;2023-09-19T06:36:36;7.55;;;2.90;;
40022;SDS011;25713;-35.352;149.036;2023-09-19T06:39:06;5.45;;;2.97;;
40022;SDS011;25713;-35.352;149.036;2023-09-19T06:41:37;4.18;;;2.95;;
40022;SDS011;25713;-35.352;149.036;2023-09-19T06:44:10;6.63;;;3.03;;
40022;SDS011;25713;-35.352;149.036;2023-09-19T06:46:40;5.75;;;2.70;;
40022;SDS011;25713;-35.352;149.036;2023-09-19T06:49:09;4.38;;;2.80;;
40022;SDS011;25713;-35.352;149.036;2023-09-19T06:51:39;4.75;;;3.13;;
40022;SDS011;25713;-35.352;149.036;2023-09-19T06:54:08;8.38;;;2.80;;
40022;SDS011;25713;-35.352;149.036;2023-09-19T06:56:39;6.30;;;3.13;;
40022;SDS011;25713;-35.352;149.036;2023-09-19T06:59:09;7.53;;;3.27;;
40022;SDS011;25713;-35.352;149.036;2023-09-19T07:01:38;6.40;;;3.08;;
40022;SDS011;25713;-35.352;149.036;2023-09-19T07:04:08;5.88;;;3.03;;
40022;SDS011;25713;-35.352;149.036;2023-09-19T07:06:37;6.55;;;2.88;;
40022;SDS011;25713;-35.352;149.036;2023-09-19T07:09:07;5.20;;;2.85;;
40022;SDS011;25713;-35.352;149.036;2023-09-19T07:11:36;4.28;;;3.00;;
40022;SDS011;25713;-35.352;149.036;2023-09-19T07:14:09;4.70;;;2.95;;
40022;SDS011;25713;-35.352;149.036;2023-09-19T07:16:38;3.63;;;2.60;;
40022;SDS011;25713;-35.352;149.036;2023-09-19T07:19:08;5.68;;;2.80;;
40022;SDS011;25713;-35.352;149.036;2023-09-19T07:21:37;3.85;;;3.03;;
40022;SDS011;25713;-35.352;149.036;2023-09-19T07:24:07;6.10;;;3.17;;
40022;SDS011;25713;-35.352;149.036;2023-09-19T07:26:36;6.35;;;2.90;;
40022;SDS011;25713;-35.352;149.036;2023-09-19T07:29:08;5.03;;;3.10;;
40022;SDS011;25713;-35.352;149.036;2023-09-19T07:31:37;4.63;;;2.53;;
40022;SDS011;25713;-35.352;149.036;2023-09-19T07:34:07;7.07;;;3.00;;
40022;SDS011;25713;-35.352;149.036;2023-09-19T07:36:36;7.15;;;2.90;;
40022;SDS011;25713;-35.352;149.036;2023-09-19T07:39:06;5.78;;;3.22;;
40022;SDS011;25713;-35.352;149.036;2023-09-19T07:41:35;5.18;;;2.80;;
40022;SDS011;25713;-35.352;149.036;2023-09-19T07:44:08;7.22;;;3.03;;
40022;SDS011;25713;-35.352;149.036;2023-09-19T07:46:37;5.53;;;3.22;;
40022;SDS011;25713;-35.352;149.036;2023-09-19T07:49:07;4.43;;;3.05;;
40022;SDS011;25713;-35.352;149.036;2023-09-19T07:51:36;5.35;;;2.80;;
40022;SDS011;25713;-35.352;149.036;2023-09-19T07:54:06;4.32;;;2.80;;
40022;SDS011;25713;-35.352;149.036;2023-09-19T07:56:35;3.78;;;2.83;;
40022;SDS011;25713;-35.352;149.036;2023-09-19T07:59:07;7.32;;;2.78;;
40022;SDS011;25713;-35.352;149.036;2023-09-19T08:01:36;5.50;;;2.73;;
40022;SDS011;25713;-35.352;149.036;2023-09-19T08:04:06;7.63;;;2.83;;
40022;SDS011;25713;-35.352;149.036;2023-09-19T08:06:35;3.97;;;2.58;;
40022;SDS011;25713;-35.352;149.036;2023-09-19T08:09:04;6.13;;;3.10;;
40022;SDS011;25713;-35.352;149.036;2023-09-19T08:11:34;4.97;;;3.05;;
40022;SDS011;25713;-35.352;149.036;2023-09-19T08:14:03;6.88;;;3.13;;
40022;SDS011;25713;-35.352;149.036;2023-09-19T08:16:35;6.05;;;2.95;;
40022;SDS011;25713;-35.352;149.036;2023-09-19T08:19:05;7.22;;;2.95;;
40022;SDS011;25713;-35.352;149.036;2023-09-19T08:21:34;12.15;;;3.03;;
40022;SDS011;25713;-35.352;149.036;2023-09-19T08:24:03;4.18;;;2.63;;
40022;SDS011;25713;-35.352;149.036;2023-09-19T08:26:33;3.60;;;2.92;;
40022;SDS011;25713;-35.352;149.036;2023-09-19T08:29:02;4.25;;;3.17;;
40022;SDS011;25713;-35.352;149.036;2023-09-19T08:31:34;8.65;;;3.00;;
40022;SDS011;25713;-35.352;149.036;2023-09-19T08:34:03;6.72;;;2.95;;
40022;SDS011;25713;-35.352;149.036;2023-09-19T08:36:33;4.07;;;2.50;;
40022;SDS011;25713;-35.352;149.036;2023-09-19T08:39:02;9.00;;;2.95;;
40022;SDS011;25713;-35.352;149.036;2023-09-19T08:41:31;5.40;;;2.72;;
40022;SDS011;25713;-35.352;149.036;2023-09-19T08:44:01;4.35;;;2.75;;
40022;SDS011;25713;-35.352;149.036;2023-09-19T08:46:30;6.68;;;2.60;;
40022;SDS011;25713;-35.352;149.036;2023-09-19T08:49:11;4.63;;;2.90;;
40022;SDS011;25713;-35.352;149.036;2023-09-19T08:51:47;6.43;;;2.95;;
40022;SDS011;25713;-35.352;149.036;2023-09-19T08:54:24;3.33;;;2.70;;
40022;SDS011;25713;-35.352;149.036;2023-09-19T08:56:55;3.45;;;2.47;;
40022;SDS011;25713;-35.352;149.036;2023-09-19T08:59:26;4.70;;;2.70;;
40022;SDS011;25713;-35.352;149.036;2023-09-19T09:01:58;4.45;;;2.95;;
40022;SDS011;25713;-35.352;149.036;2023-09-19T09:04:28;2.80;;;2.40;;
40022;SDS011;25713;-35.352;149.036;2023-09-19T09:06:57;6.05;;;2.80;;
40022;SDS011;25713;-35.352;149.036;2023-09-19T09:09:28;5.95;;;2.92;;
40022;SDS011;25713;-35.352;149.036;2023-09-19T09:11:58;9.43;;;3.05;;
40022;SDS011;25713;-35.352;149.036;2023-09-19T09:14:28;6.10;;;2.78;;
40022;SDS011;25713;-35.352;149.036;2023-09-19T09:16:59;7.25;;;2.70;;
40022;SDS011;25713;-35.352;149.036;2023-09-19T09:19:29;6.07;;;2.92;;
40022;SDS011;25713;-35.352;149.036;2023-09-19T09:22:06;7.47;;;3.03;;
40022;SDS011;25713;-35.352;149.036;2023-09-19T09:24:36;5.40;;;2.50;;
40022;SDS011;25713;-35.352;149.036;2023-09-19T09:27:18;6.05;;;2.95;;
40022;SDS011;25713;-35.352;149.036;2023-09-19T09:29:48;3.72;;;2.60;;
40022;SDS011;25713;-35.352;149.036;2023-09-19T09:32:21;9.13;;;3.10;;
40022;SDS011;25713;-35.352;149.036;2023-09-19T09:34:51;6.22;;;2.72;;
40022;SDS011;25713;-35.352;149.036;2023-09-19T09:37:21;3.08;;;2.47;;
40022;SDS011;25713;-35.352;149.036;2023-09-19T09:39:52;5.28;;;2.50;;
40022;SDS011;25713;-35.352;149.036;2023-09-19T09:42:32;5.65;;;2.83;;
40022;SDS011;25713;-35.352;149.036;2023-09-19T09:45:14;4.20;;;2.83;;
40022;SDS011;25713;-35.352;149.036;2023-09-19T09:47:47;5.35;;;2.97;;
40022;SDS011;25713;-35.352;149.036;2023-09-19T09:50:26;9.02;;;2.80;;
40022;SDS011;25713;-35.352;149.036;2023-09-19T09:52:56;8.20;;;2.60;;
40022;SDS011;25713;-35.352;149.036;2023-09-19T09:55:26;3.67;;;2.90;;
40022;SDS011;25713;-35.352;149.036;2023-09-19T10:00:56;6.25;;;2.90;;
40022;SDS011;25713;-35.352;149.036;2023-09-19T10:03:36;4.00;;;2.85;;
40022;SDS011;25713;-35.352;149.036;2023-09-19T10:06:07;3.80;;;2.70;;
40022;SDS011;25713;-35.352;149.036;2023-09-19T10:08:39;3.37;;;2.53;;
40022;SDS011;25713;-35.352;149.036;2023-09-19T10:11:25;6.45;;;2.47;;
40022;SDS011;25713;-35.352;149.036;2023-09-19T10:13:55;8.70;;;2.22;;
40022;SDS011;25713;-35.352;149.036;2023-09-19T10:16:26;4.13;;;2.50;;
40022;SDS011;25713;-35.352;149.036;2023-09-19T10:19:01;5.72;;;2.80;;
40022;SDS011;25713;-35.352;149.036;2023-09-19T10:21:35;4.90;;;2.63;;
40022;SDS011;25713;-35.352;149.036;2023-09-19T10:24:06;5.60;;;2.85;;
40022;SDS011;25713;-35.352;149.036;2023-09-19T10:26:37;3.75;;;2.80;;
40022;SDS011;25713;-35.352;149.036;2023-09-19T10:29:08;6.85;;;2.90;;
40022;SDS011;25713;-35.352;149.036;2023-09-19T10:31:39;9.43;;;2.80;;
40022;SDS011;25713;-35.352;149.036;2023-09-19T10:34:14;5.63;;;2.80;;
40022;SDS011;25713;-35.352;149.036;2023-09-19T10:36:45;5.50;;;2.75;;
40022;SDS011;25713;-35.352;149.036;2023-09-19T10:39:16;4.30;;;2.47;;
40022;SDS011;25713;-35.352;149.036;2023-09-19T10:41:50;4.70;;;2.72;;
40022;SDS011;25713;-35.352;149.036;2023-09-19T10:44:22;4.90;;;2.90;;
40022;SDS011;25713;-35.352;149.036;2023-09-19T10:46:54;5.05;;;2.70;;
40022;SDS011;25713;-35.352;149.036;2023-09-19T10:49:29;4.05;;;2.40;;
40022;SDS011;25713;-35.352;149.036;2023-09-19T10:52:00;3.97;;;2.45;;
40022;SDS011;25713;-35.352;149.036;2023-09-19T10:54:33;4.25;;;3.08;;
40022;SDS011;25713;-35.352;149.036;2023-09-19T10:57:05;4.03;;;2.55;;
40022;SDS011;25713;-35.352;149.036;2023-09-19T10:59:37;4.95;;;3.08;;
40022;SDS011;25713;-35.352;149.036;2023-09-19T11:02:28;5.78;;;2.80;;
40022;SDS011;25713;-35.352;149.036;2023-09-19T11:05:07;4.18;;;2.60;;
40022;SDS011;25713;-35.352;149.036;2023-09-19T11:10:47;5.63;;;2.80;;
40022;SDS011;25713;-35.352;149.036;2023-09-19T11:13:27;4.57;;;2.78;;
40022;SDS011;25713;-35.352;149.036;2023-09-19T11:24:29;5.70;;;2.70;;
40022;SDS011;25713;-35.352;149.036;2023-09-19T11:27:10;4.27;;;3.37;;
40022;SDS011;25713;-35.352;149.036;2023-09-19T11:29:41;5.22;;;2.90;;
40022;SDS011;25713;-35.352;149.036;2023-09-19T11:32:12;3.38;;;2.78;;
40022;SDS011;25713;-35.352;149.036;2023-09-19T11:34:43;5.15;;;3.00;;
40022;SDS011;25713;-35.352;149.036;2023-09-19T11:40:36;6.32;;;3.08;;
40022;SDS011;25713;-35.352;149.036;2023-09-19T11:43:31;3.83;;;2.60;;
40022;SDS011;25713;-35.352;149.036;2023-09-19T11:46:06;3.90;;;2.60;;
40022;SDS011;25713;-35.352;149.036;2023-09-19T11:48:38;3.92;;;2.42;;
40022;SDS011;25713;-35.352;149.036;2023-09-19T11:51:12;5.13;;;3.03;;
40022;SDS011;25713;-35.352;149.036;2023-09-19T11:53:43;4.78;;;2.75;;
40022;SDS011;25713;-35.352;149.036;2023-09-19T11:56:18;5.03;;;2.83;;
40022;SDS011;25713;-35.352;149.036;2023-09-19T11:58:49;4.13;;;2.63;;
40022;SDS011;25713;-35.352;149.036;2023-09-19T12:01:24;3.47;;;2.60;;
40022;SDS011;25713;-35.352;149.036;2023-09-19T12:03:58;3.35;;;2.72;;
40022;SDS011;25713;-35.352;149.036;2023-09-19T12:06:29;3.13;;;2.80;;
40022;SDS011;25713;-35.352;149.036;2023-09-19T12:08:59;4.10;;;2.55;;
40022;SDS011;25713;-35.352;149.036;2023-09-19T12:11:33;4.05;;;3.00;;
40022;SDS011;25713;-35.352;149.036;2023-09-19T12:14:11;3.65;;;2.63;;
40022;SDS011;25713;-35.352;149.036;2023-09-19T12:16:51;4.57;;;2.53;;
40022;SDS011;25713;-35.352;149.036;2023-09-19T12:19:26;6.63;;;3.03;;
40022;SDS011;25713;-35.352;149.036;2023-09-19T12:21:58;4.80;;;2.60;;
40022;SDS011;25713;-35.352;149.036;2023-09-19T12:24:29;5.00;;;2.85;;
40022;SDS011;25713;-35.352;149.036;2023-09-19T12:27:03;4.32;;;2.60;;
40022;SDS011;25713;-35.352;149.036;2023-09-19T12:29:42;5.28;;;3.00;;
40022;SDS011;25713;-35.352;149.036;2023-09-19T12:32:13;5.10;;;2.92;;
40022;SDS011;25713;-35.352;149.036;2023-09-19T12:34:49;3.63;;;2.65;;
40022;SDS011;25713;-35.352;149.036;2023-09-19T12:37:21;4.10;;;2.80;;
40022;SDS011;25713;-35.352;149.036;2023-09-19T12:39:51;3.92;;;3.20;;
40022;SDS011;25713;-35.352;149.036;2023-09-19T12:42:34;5.45;;;3.28;;
40022;SDS011;25713;-35.352;149.036;2023-09-19T12:45:03;7.25;;;3.10;;
40022;SDS011;25713;-35.352;149.036;2023-09-19T12:47:36;5.95;;;2.90;;
40022;SDS011;25713;-35.352;149.036;2023-09-19T12:50:10;4.72;;;2.90;;
40022;SDS011;25713;-35.352;149.036;2023-09-19T12:52:40;4.57;;;2.72;;
40022;SDS011;25713;-35.352;149.036;2023-09-19T12:55:21;4.20;;;2.60;;
40022;SDS011;25713;-35.352;149.036;2023-09-19T12:58:11;4.50;;;2.60;;
40022;SDS011;25713;-35.352;149.036;2023-09-19T13:00:41;3.35;;;2.58;;
40022;SDS011;25713;-35.352;149.036;2023-09-19T13:03:17;4.00;;;2.67;;
40022;SDS011;25713;-35.352;149.036;2023-09-19T13:05:52;5.55;;;2.95;;
40022;SDS011;25713;-35.352;149.036;2023-09-19T13:08:26;5.50;;;2.92;;
40022;SDS011;25713;-35.352;149.036;2023-09-19T13:11:03;3.67;;;2.80;;
40022;SDS011;25713;-35.352;149.036;2023-09-19T13:13:41;6.15;;;3.50;;
40022;SDS011;25713;-35.352;149.036;2023-09-19T13:16:12;3.92;;;2.75;;
40022;SDS011;25713;-35.352;149.036;2023-09-19T13:18:43;4.70;;;2.78;;
40022;SDS011;25713;-35.352;149.036;2023-09-19T13:21:16;4.85;;;2.63;;
40022;SDS011;25713;-35.352;149.036;2023-09-19T13:23:54;4.63;;;2.80;;
40022;SDS011;25713;-35.352;149.036;2023-09-19T13:26:45;3.70;;;2.80;;
40022;SDS011;25713;-35.352;149.036;2023-09-19T13:29:16;5.63;;;3.00;;
40022;SDS011;25713;-35.352;149.036;2023-09-19T13:31:46;6.03;;;3.23;;
40022;SDS011;25713;-35.352;149.036;2023-09-19T13:34:16;3.92;;;2.65;;
40022;SDS011;25713;-35.352;149.036;2023-09-19T13:36:45;4.65;;;2.83;;
40022;SDS011;25713;-35.352;149.036;2023-09-19T13:39:14;7.38;;;2.90;;
40022;SDS011;25713;-35.352;149.036;2023-09-19T13:41:44;3.88;;;2.90;;
40022;SDS011;25713;-35.352;149.036;2023-09-19T13:44:17;5.95;;;3.10;;
40022;SDS011;25713;-35.352;149.036;2023-09-19T13:46:46;4.22;;;2.58;;
40022;SDS011;25713;-35.352;149.036;2023-09-19T13:49:16;5.50;;;2.58;;
40022;SDS011;25713;-35.352;149.036;2023-09-19T13:51:45;3.78;;;2.90;;
40022;SDS011;25713;-35.352;149.036;2023-09-19T13:54:15;4.05;;;2.65;;
40022;SDS011;25713;-35.352;149.036;2023-09-19T13:56:44;5.82;;;2.97;;
40022;SDS011;25713;-35.352;149.036;2023-09-19T13:59:14;3.65;;;2.90;;
40022;SDS011;25713;-35.352;149.036;2023-09-19T14:01:45;4.13;;;3.08;;
40022;SDS011;25713;-35.352;149.036;2023-09-19T14:04:15;4.40;;;3.00;;
40022;SDS011;25713;-35.352;149.036;2023-09-19T14:06:44;5.22;;;3.00;;
40022;SDS011;25713;-35.352;149.036;2023-09-19T14:09:13;4.18;;;3.00;;
40022;SDS011;25713;-35.352;149.036;2023-09-19T14:11:43;7.57;;;2.72;;
40022;SDS011;25713;-35.352;149.036;2023-09-19T14:14:13;5.80;;;3.05;;
40022;SDS011;25713;-35.352;149.036;2023-09-19T14:16:44;3.90;;;2.67;;
40022;SDS011;25713;-35.352;149.036;2023-09-19T14:19:14;3.58;;;2.88;;
40022;SDS011;25713;-35.352;149.036;2023-09-19T14:21:43;5.10;;;2.80;;
40022;SDS011;25713;-35.352;149.036;2023-09-19T14:24:16;4.45;;;2.78;;
40022;SDS011;25713;-35.352;149.036;2023-09-19T14:26:46;3.20;;;2.63;;
40022;SDS011;25713;-35.352;149.036;2023-09-19T14:29:16;3.97;;;2.80;;
40022;SDS011;25713;-35.352;149.036;2023-09-19T14:31:47;7.80;;;3.40;;
40022;SDS011;25713;-35.352;149.036;2023-09-19T14:34:17;6.57;;;2.50;;
40022;SDS011;25713;-35.352;149.036;2023-09-19T14:36:46;8.00;;;3.00;;
40022;SDS011;25713;-35.352;149.036;2023-09-19T14:39:16;4.38;;;3.15;;
40022;SDS011;25713;-35.352;149.036;2023-09-19T14:41:45;6.25;;;3.17;;
40022;SDS011;25713;-35.352;149.036;2023-09-19T14:44:14;3.45;;;2.55;;
40022;SDS011;25713;-35.352;149.036;2023-09-19T15:59:28;3.00;;;2.58;;
40022;SDS011;25713;-35.352;149.036;2023-09-19T16:01:57;7.03;;;2.92;;
40022;SDS011;25713;-35.352;149.036;2023-09-19T16:04:26;3.50;;;2.47;;
40022;SDS011;25713;-35.352;149.036;2023-09-19T16:06:56;8.15;;;2.90;;